sensor_id;sensor_type;location;lat;lon;timestamp;P1;durP1;ratioP1;P2;durP2;ratioP2
81815;SDS011;71249;52.084;5.304;2023-07-20T00:01:12;6.3;;;4.5;;
81815;SDS011;71249;52.084;5.304;2023-07-20T00:02:49;6.8;;;4.61;;
81815;SDS011;71249;52.084;5.304;2023-07-20T00:04:26;6.2;;;4.1;;
81815;SDS011;71249;52.084;5.304;2023-07-20T00:06:02;5.5;;;3.6;;
81815;SDS011;71249;52.084;5.304;2023-07-20T00:09:14;5.5;;;3.9;;
81815;SDS011;71249;52.084;5.304;2023-07-20T00:10:50;5.11;;;3.8;;
81815;SDS011;71249;52.084;5.304;2023-07-20T00:12:27;4.3;;;3.2;;
81815;SDS011;71249;52.084;5.304;2023-07-20T00:15:39;4.41;;;3.8;;
81815;SDS011;71249;52.084;5.304;2023-07-20T00:17:15;4.2;;;3.8;;
81815;SDS011;71249;52.084;5.304;2023-07-20T00:18:51;3.7;;;3.3;;
81815;SDS011;71249;52.084;5.304;2023-07-20T00:22:03;4.1;;;3.4;;
81815;SDS011;71249;52.084;5.304;2023-07-20T00:23:39;5.0;;;3.8;;
81815;SDS011;71249;52.084;5.304;2023-07-20T00:25:15;5.0;;;3.9;;
81815;SDS011;71249;52.084;5.304;2023-07-20T00:28:28;4.0;;;3.5;;
81815;SDS011;71249;52.084;5.304;2023-07-20T00:30:04;3.6;;;3.0;;
81815;SDS011;71249;52.084;5.304;2023-07-20T00:31:41;4.7;;;3.1;;
81815;SDS011;71249;52.084;5.304;2023-07-20T00:33:18;4.0;;;3.4;;
81815;SDS011;71249;52.084;5.304;2023-07-20T00:36:30;4.0;;;3.4;;
81815;SDS011;71249;52.084;5.304;2023-07-20T00:38:06;4.1;;;3.1;;
81815;SDS011;71249;52.084;5.304;2023-07-20T00:39:42;3.4;;;3.1;;
81815;SDS011;71249;52.084;5.304;2023-07-20T00:42:55;3.0;;;2.6;;
81815;SDS011;71249;52.084;5.304;2023-07-20T00:44:31;3.9;;;3.0;;
81815;SDS011;71249;52.084;5.304;2023-07-20T00:46:07;4.61;;;3.1;;
81815;SDS011;71249;52.084;5.304;2023-07-20T00:49:22;3.3;;;2.8;;
81815;SDS011;71249;52.084;5.304;2023-07-20T00:50:58;4.41;;;3.5;;
81815;SDS011;71249;52.084;5.304;2023-07-20T00:52:35;3.1;;;2.8;;
81815;SDS011;71249;52.084;5.304;2023-07-20T00:54:14;4.7;;;2.9;;
81815;SDS011;71249;52.084;5.304;2023-07-20T00:57:27;3.2;;;2.9;;
81815;SDS011;71249;52.084;5.304;2023-07-20T00:59:03;3.6;;;2.7;;
81815;SDS011;71249;52.084;5.304;2023-07-20T01:00:40;3.4;;;2.6;;
81815;SDS011;71249;52.084;5.304;2023-07-20T01:03:52;3.8;;;2.7;;
81815;SDS011;71249;52.084;5.304;2023-07-20T01:05:31;3.4;;;3.1;;
81815;SDS011;71249;52.084;5.304;2023-07-20T01:07:17;4.0;;;2.9;;
81815;SDS011;71249;52.084;5.304;2023-07-20T01:09:03;3.6;;;2.6;;
81815;SDS011;71249;52.084;5.304;2023-07-20T01:12:35;3.0;;;2.7;;
81815;SDS011;71249;52.084;5.304;2023-07-20T01:14:17;3.2;;;2.5;;
81815;SDS011;71249;52.084;5.304;2023-07-20T01:15:56;3.8;;;2.8;;
81815;SDS011;71249;52.084;5.304;2023-07-20T01:17:35;4.7;;;3.2;;
81815;SDS011;71249;52.084;5.304;2023-07-20T01:20:48;4.0;;;3.3;;
81815;SDS011;71249;52.084;5.304;2023-07-20T01:22:32;2.9;;;2.7;;
81815;SDS011;71249;52.084;5.304;2023-07-20T01:24:57;3.5;;;3.2;;
81815;SDS011;71249;52.084;5.304;2023-07-20T01:26:54;3.5;;;3.2;;
81815;SDS011;71249;52.084;5.304;2023-07-20T01:30:13;3.1;;;2.6;;
81815;SDS011;71249;52.084;5.304;2023-07-20T01:32:00;3.7;;;2.6;;
81815;SDS011;71249;52.084;5.304;2023-07-20T01:35:17;3.9;;;3.1;;
81815;SDS011;71249;52.084;5.304;2023-07-20T01:36:57;3.3;;;2.5;;
81815;SDS011;71249;52.084;5.304;2023-07-20T01:38:34;2.5;;;2.31;;
81815;SDS011;71249;52.084;5.304;2023-07-20T01:40:12;4.3;;;2.21;;
81815;SDS011;71249;52.084;5.304;2023-07-20T01:43:26;3.4;;;2.31;;
81815;SDS011;71249;52.084;5.304;2023-07-20T01:45:02;4.1;;;2.4;;
81815;SDS011;71249;52.084;5.304;2023-07-20T01:46:39;3.2;;;2.21;;
81815;SDS011;71249;52.084;5.304;2023-07-20T01:49:51;2.7;;;2.5;;
81815;SDS011;71249;52.084;5.304;2023-07-20T01:51:27;2.6;;;2.4;;
81815;SDS011;71249;52.084;5.304;2023-07-20T01:53:03;2.6;;;2.4;;
81815;SDS011;71249;52.084;5.304;2023-07-20T01:56:16;2.21;;;2.0;;
81815;SDS011;71249;52.084;5.304;2023-07-20T01:57:52;2.21;;;2.0;;
81815;SDS011;71249;52.084;5.304;2023-07-20T01:59:29;2.31;;;2.1;;
81815;SDS011;71249;52.084;5.304;2023-07-20T02:01:05;2.7;;;1.9;;
81815;SDS011;71249;52.084;5.304;2023-07-20T02:04:17;2.31;;;2.1;;
81815;SDS011;71249;52.084;5.304;2023-07-20T02:05:53;2.6;;;2.31;;
81815;SDS011;71249;52.084;5.304;2023-07-20T02:07:29;3.1;;;2.1;;
81815;SDS011;71249;52.084;5.304;2023-07-20T02:10:42;3.4;;;2.5;;
81815;SDS011;71249;52.084;5.304;2023-07-20T02:12:21;2.6;;;2.31;;
81815;SDS011;71249;52.084;5.304;2023-07-20T02:13:57;2.5;;;2.31;;
81815;SDS011;71249;52.084;5.304;2023-07-20T02:17:09;2.7;;;2.5;;
81815;SDS011;71249;52.084;5.304;2023-07-20T02:18:45;2.7;;;2.31;;
81815;SDS011;71249;52.084;5.304;2023-07-20T02:20:21;2.5;;;2.21;;
81815;SDS011;71249;52.084;5.304;2023-07-20T02:21:57;3.6;;;2.31;;
81815;SDS011;71249;52.084;5.304;2023-07-20T02:25:10;2.0;;;1.9;;
81815;SDS011;71249;52.084;5.304;2023-07-20T02:26:46;2.4;;;2.21;;
81815;SDS011;71249;52.084;5.304;2023-07-20T02:28:22;2.1;;;1.9;;
81815;SDS011;71249;52.084;5.304;2023-07-20T02:31:34;2.6;;;2.4;;
81815;SDS011;71249;52.084;5.304;2023-07-20T02:33:10;3.8;;;2.1;;
81815;SDS011;71249;52.084;5.304;2023-07-20T02:34:46;2.0;;;1.8;;
81815;SDS011;71249;52.084;5.304;2023-07-20T02:37:58;2.31;;;1.8;;
81815;SDS011;71249;52.084;5.304;2023-07-20T02:41:11;2.21;;;2.0;;
81815;SDS011;71249;52.084;5.304;2023-07-20T02:44:25;2.5;;;2.31;;
81815;SDS011;71249;52.084;5.304;2023-07-20T02:46:01;2.7;;;2.5;;
81815;SDS011;71249;52.084;5.304;2023-07-20T02:47:37;3.0;;;2.4;;
81815;SDS011;71249;52.084;5.304;2023-07-20T02:49:13;3.8;;;2.4;;
81815;SDS011;71249;52.084;5.304;2023-07-20T02:52:25;2.21;;;2.0;;
81815;SDS011;71249;52.084;5.304;2023-07-20T02:54:02;2.1;;;2.0;;
81815;SDS011;71249;52.084;5.304;2023-07-20T02:55:38;3.1;;;2.31;;
81815;SDS011;71249;52.084;5.304;2023-07-20T02:58:50;3.3;;;2.1;;
81815;SDS011;71249;52.084;5.304;2023-07-20T03:00:27;2.9;;;2.0;;
81815;SDS011;71249;52.084;5.304;2023-07-20T03:02:03;3.9;;;1.7;;
81815;SDS011;71249;52.084;5.304;2023-07-20T03:05:15;2.9;;;1.9;;
81815;SDS011;71249;52.084;5.304;2023-07-20T03:06:51;1.8;;;1.7;;
81815;SDS011;71249;52.084;5.304;2023-07-20T03:08:28;2.0;;;1.9;;
81815;SDS011;71249;52.084;5.304;2023-07-20T03:11:41;1.9;;;1.8;;
81815;SDS011;71249;52.084;5.304;2023-07-20T03:13:17;2.5;;;1.8;;
81815;SDS011;71249;52.084;5.304;2023-07-20T03:14:53;2.21;;;1.7;;
81815;SDS011;71249;52.084;5.304;2023-07-20T03:16:29;4.5;;;2.31;;
81815;SDS011;71249;52.084;5.304;2023-07-20T03:19:41;3.3;;;2.0;;
81815;SDS011;71249;52.084;5.304;2023-07-20T03:21:17;3.2;;;2.0;;
81815;SDS011;71249;52.084;5.304;2023-07-20T03:22:54;2.31;;;1.9;;
81815;SDS011;71249;52.084;5.304;2023-07-20T03:26:06;2.31;;;2.1;;
81815;SDS011;71249;52.084;5.304;2023-07-20T03:27:42;3.1;;;1.9;;
81815;SDS011;71249;52.084;5.304;2023-07-20T03:29:18;2.21;;;2.0;;
81815;SDS011;71249;52.084;5.304;2023-07-20T03:32:31;2.1;;;1.9;;
81815;SDS011;71249;52.084;5.304;2023-07-20T03:34:07;2.31;;;2.0;;
81815;SDS011;71249;52.084;5.304;2023-07-20T03:35:43;3.5;;;2.1;;
81815;SDS011;71249;52.084;5.304;2023-07-20T03:37:20;3.5;;;1.8;;
81815;SDS011;71249;52.084;5.304;2023-07-20T03:40:32;1.8;;;1.7;;
81815;SDS011;71249;52.084;5.304;2023-07-20T03:42:08;3.2;;;1.9;;
81815;SDS011;71249;52.084;5.304;2023-07-20T03:43:44;1.9;;;1.8;;
81815;SDS011;71249;52.084;5.304;2023-07-20T03:46:56;2.21;;;2.0;;
81815;SDS011;71249;52.084;5.304;2023-07-20T03:48:33;2.8;;;2.0;;
81815;SDS011;71249;52.084;5.304;2023-07-20T03:50:10;3.0;;;1.9;;
81815;SDS011;71249;52.084;5.304;2023-07-20T03:53:22;2.21;;;2.0;;
81815;SDS011;71249;52.084;5.304;2023-07-20T03:54:58;2.0;;;1.9;;
81815;SDS011;71249;52.084;5.304;2023-07-20T03:56:34;3.8;;;1.7;;
81815;SDS011;71249;52.084;5.304;2023-07-20T03:59:48;2.31;;;1.9;;
81815;SDS011;71249;52.084;5.304;2023-07-20T04:01:24;2.8;;;2.1;;
81815;SDS011;71249;52.084;5.304;2023-07-20T04:03:00;1.8;;;1.7;;
81815;SDS011;71249;52.084;5.304;2023-07-20T04:04:36;1.9;;;1.8;;
81815;SDS011;71249;52.084;5.304;2023-07-20T04:07:49;1.8;;;1.7;;
81815;SDS011;71249;52.084;5.304;2023-07-20T04:09:25;2.6;;;2.0;;
81815;SDS011;71249;52.084;5.304;2023-07-20T04:11:01;2.4;;;1.7;;
81815;SDS011;71249;52.084;5.304;2023-07-20T04:14:13;2.9;;;1.7;;
81815;SDS011;71249;52.084;5.304;2023-07-20T04:15:49;2.1;;;1.9;;
81815;SDS011;71249;52.084;5.304;2023-07-20T04:17:25;2.5;;;1.7;;
81815;SDS011;71249;52.084;5.304;2023-07-20T04:20:37;2.5;;;1.8;;
81815;SDS011;71249;52.084;5.304;2023-07-20T04:22:13;2.5;;;1.8;;
81815;SDS011;71249;52.084;5.304;2023-07-20T04:23:50;2.4;;;1.8;;
81815;SDS011;71249;52.084;5.304;2023-07-20T04:25:26;2.7;;;2.1;;
81815;SDS011;71249;52.084;5.304;2023-07-20T04:28:38;2.21;;;1.7;;
81815;SDS011;71249;52.084;5.304;2023-07-20T04:30:16;1.8;;;1.7;;
81815;SDS011;71249;52.084;5.304;2023-07-20T04:31:53;2.21;;;2.0;;
81815;SDS011;71249;52.084;5.304;2023-07-20T04:35:05;2.21;;;1.9;;
81815;SDS011;71249;52.084;5.304;2023-07-20T04:36:42;2.8;;;1.7;;
81815;SDS011;71249;52.084;5.304;2023-07-20T04:38:19;2.4;;;1.8;;
81815;SDS011;71249;52.084;5.304;2023-07-20T04:41:32;3.5;;;2.1;;
81815;SDS011;71249;52.084;5.304;2023-07-20T04:43:08;2.31;;;2.0;;
81815;SDS011;71249;52.084;5.304;2023-07-20T04:44:44;2.1;;;2.0;;
81815;SDS011;71249;52.084;5.304;2023-07-20T04:46:20;1.9;;;1.8;;
81815;SDS011;71249;52.084;5.304;2023-07-20T04:49:32;2.5;;;2.31;;
81815;SDS011;71249;52.084;5.304;2023-07-20T04:51:08;2.21;;;2.1;;
81815;SDS011;71249;52.084;5.304;2023-07-20T04:52:45;3.7;;;2.7;;
81815;SDS011;71249;52.084;5.304;2023-07-20T04:55:57;3.4;;;2.4;;
81815;SDS011;71249;52.084;5.304;2023-07-20T04:57:33;2.5;;;2.31;;
81815;SDS011;71249;52.084;5.304;2023-07-20T04:59:09;2.5;;;2.31;;
81815;SDS011;71249;52.084;5.304;2023-07-20T05:02:21;2.8;;;2.4;;
81815;SDS011;71249;52.084;5.304;2023-07-20T05:03:57;3.8;;;2.7;;
81815;SDS011;71249;52.084;5.304;2023-07-20T05:05:34;3.2;;;2.9;;
81815;SDS011;71249;52.084;5.304;2023-07-20T05:08:46;3.5;;;2.7;;
81815;SDS011;71249;52.084;5.304;2023-07-20T05:10:22;4.3;;;2.9;;
81815;SDS011;71249;52.084;5.304;2023-07-20T05:11:59;3.8;;;2.6;;
81815;SDS011;71249;52.084;5.304;2023-07-20T05:13:35;3.8;;;3.1;;
81815;SDS011;71249;52.084;5.304;2023-07-20T05:16:49;3.2;;;2.7;;
81815;SDS011;71249;52.084;5.304;2023-07-20T05:18:25;2.7;;;2.5;;
81815;SDS011;71249;52.084;5.304;2023-07-20T05:20:01;2.6;;;2.31;;
81815;SDS011;71249;52.084;5.304;2023-07-20T05:23:14;4.3;;;3.0;;
81815;SDS011;71249;52.084;5.304;2023-07-20T05:24:50;3.0;;;2.7;;
81815;SDS011;71249;52.084;5.304;2023-07-20T05:26:26;2.7;;;2.5;;
81815;SDS011;71249;52.084;5.304;2023-07-20T05:29:43;6.2;;;2.7;;
81815;SDS011;71249;52.084;5.304;2023-07-20T05:31:20;2.7;;;2.5;;
81815;SDS011;71249;52.084;5.304;2023-07-20T05:32:56;3.0;;;2.7;;
81815;SDS011;71249;52.084;5.304;2023-07-20T05:34:32;2.6;;;2.4;;
81815;SDS011;71249;52.084;5.304;2023-07-20T05:37:44;2.8;;;2.4;;
81815;SDS011;71249;52.084;5.304;2023-07-20T05:39:21;2.31;;;2.21;;
81815;SDS011;71249;52.084;5.304;2023-07-20T05:40:59;3.1;;;2.6;;
81815;SDS011;71249;52.084;5.304;2023-07-20T05:44:13;2.8;;;2.6;;
81815;SDS011;71249;52.084;5.304;2023-07-20T05:45:49;2.6;;;2.4;;
81815;SDS011;71249;52.084;5.304;2023-07-20T05:47:25;3.6;;;2.1;;
81815;SDS011;71249;52.084;5.304;2023-07-20T05:50:38;2.0;;;1.9;;
81815;SDS011;71249;52.084;5.304;2023-07-20T05:52:18;2.6;;;2.31;;
81815;SDS011;71249;52.084;5.304;2023-07-20T05:53:54;4.61;;;2.21;;
81815;SDS011;71249;52.084;5.304;2023-07-20T05:55:31;2.31;;;2.1;;
81815;SDS011;71249;52.084;5.304;2023-07-20T05:58:43;2.9;;;1.9;;
81815;SDS011;71249;52.084;5.304;2023-07-20T06:00:19;1.9;;;1.8;;
81815;SDS011;71249;52.084;5.304;2023-07-20T06:01:56;1.8;;;1.7;;
81815;SDS011;71249;52.084;5.304;2023-07-20T06:05:08;1.6;;;1.5;;
81815;SDS011;71249;52.084;5.304;2023-07-20T06:06:45;1.7;;;1.6;;
81815;SDS011;71249;52.084;5.304;2023-07-20T06:08:21;1.6;;;1.5;;
81815;SDS011;71249;52.084;5.304;2023-07-20T06:11:33;2.0;;;1.8;;
81815;SDS011;71249;52.084;5.304;2023-07-20T06:13:09;1.9;;;1.6;;
81815;SDS011;71249;52.084;5.304;2023-07-20T06:14:45;2.1;;;1.8;;
81815;SDS011;71249;52.084;5.304;2023-07-20T06:16:22;2.31;;;2.1;;
81815;SDS011;71249;52.084;5.304;2023-07-20T06:19:34;2.6;;;2.0;;
81815;SDS011;71249;52.084;5.304;2023-07-20T06:21:11;2.31;;;1.9;;
81815;SDS011;71249;52.084;5.304;2023-07-20T06:22:47;2.6;;;1.7;;
81815;SDS011;71249;52.084;5.304;2023-07-20T06:25:59;1.6;;;1.4;;
81815;SDS011;71249;52.084;5.304;2023-07-20T06:27:35;5.11;;;1.7;;
81815;SDS011;71249;52.084;5.304;2023-07-20T06:29:12;1.2;;;1.11;;
81815;SDS011;71249;52.084;5.304;2023-07-20T06:32:24;2.5;;;1.4;;
81815;SDS011;71249;52.084;5.304;2023-07-20T06:34:00;2.7;;;1.4;;
81815;SDS011;71249;52.084;5.304;2023-07-20T06:35:36;5.11;;;1.6;;
81815;SDS011;71249;52.084;5.304;2023-07-20T06:38:48;2.4;;;1.2;;
81815;SDS011;71249;52.084;5.304;2023-07-20T06:40:24;2.6;;;1.0;;
81815;SDS011;71249;52.084;5.304;2023-07-20T06:42:01;1.8;;;0.9;;
81815;SDS011;71249;52.084;5.304;2023-07-20T06:43:37;2.0;;;1.2;;
81815;SDS011;71249;52.084;5.304;2023-07-20T06:46:49;1.5;;;1.0;;
81815;SDS011;71249;52.084;5.304;2023-07-20T06:48:25;2.1;;;0.8;;
81815;SDS011;71249;52.084;5.304;2023-07-20T06:50:01;2.1;;;0.8;;
81815;SDS011;71249;52.084;5.304;2023-07-20T06:53:13;2.21;;;0.9;;
81815;SDS011;71249;52.084;5.304;2023-07-20T06:54:49;0.9;;;0.7;;
81815;SDS011;71249;52.084;5.304;2023-07-20T06:56:25;1.3;;;0.7;;
81815;SDS011;71249;52.084;5.304;2023-07-20T06:59:37;2.0;;;0.7;;
81815;SDS011;71249;52.084;5.304;2023-07-20T07:01:14;2.0;;;0.7;;
81815;SDS011;71249;52.084;5.304;2023-07-20T07:02:50;2.9;;;0.8;;
81815;SDS011;71249;52.084;5.304;2023-07-20T07:04:26;2.1;;;0.9;;
81815;SDS011;71249;52.084;5.304;2023-07-20T07:07:38;1.5;;;0.6;;
81815;SDS011;71249;52.084;5.304;2023-07-20T07:09:14;0.9;;;0.7;;
81815;SDS011;71249;52.084;5.304;2023-07-20T07:10:51;1.6;;;0.8;;
81815;SDS011;71249;52.084;5.304;2023-07-20T07:14:04;3.4;;;0.9;;
81815;SDS011;71249;52.084;5.304;2023-07-20T07:15:40;4.0;;;0.8;;
81815;SDS011;71249;52.084;5.304;2023-07-20T07:17:16;1.7;;;0.7;;
81815;SDS011;71249;52.084;5.304;2023-07-20T07:20:28;0.8;;;0.5;;
81815;SDS011;71249;52.084;5.304;2023-07-20T07:22:04;1.9;;;0.7;;
81815;SDS011;71249;52.084;5.304;2023-07-20T07:23:41;0.8;;;0.6;;
81815;SDS011;71249;52.084;5.304;2023-07-20T07:26:53;1.8;;;0.6;;
81815;SDS011;71249;52.084;5.304;2023-07-20T07:28:29;0.9;;;0.6;;
81815;SDS011;71249;52.084;5.304;2023-07-20T07:30:06;2.1;;;0.9;;
81815;SDS011;71249;52.084;5.304;2023-07-20T07:31:43;1.5;;;0.7;;
81815;SDS011;71249;52.084;5.304;2023-07-20T07:34:56;1.5;;;0.7;;
81815;SDS011;71249;52.084;5.304;2023-07-20T07:36:32;2.9;;;0.8;;
81815;SDS011;71249;52.084;5.304;2023-07-20T07:38:09;2.6;;;0.8;;
81815;SDS011;71249;52.084;5.304;2023-07-20T07:41:21;1.0;;;0.6;;
81815;SDS011;71249;52.084;5.304;2023-07-20T07:42:57;0.6;;;0.5;;
81815;SDS011;71249;52.084;5.304;2023-07-20T07:44:33;2.1;;;0.7;;
81815;SDS011;71249;52.084;5.304;2023-07-20T07:47:45;2.7;;;0.7;;
81815;SDS011;71249;52.084;5.304;2023-07-20T07:49:21;1.4;;;0.6;;
81815;SDS011;71249;52.084;5.304;2023-07-20T07:50:57;1.8;;;0.5;;
81815;SDS011;71249;52.084;5.304;2023-07-20T07:52:33;3.6;;;0.7;;
81815;SDS011;71249;52.084;5.304;2023-07-20T07:55:47;1.5;;;0.5;;
81815;SDS011;71249;52.084;5.304;2023-07-20T07:57:23;2.1;;;0.7;;
81815;SDS011;71249;52.084;5.304;2023-07-20T07:58:59;3.3;;;0.8;;
81815;SDS011;71249;52.084;5.304;2023-07-20T08:02:11;2.1;;;0.5;;
81815;SDS011;71249;52.084;5.304;2023-07-20T08:03:47;2.6;;;0.5;;
81815;SDS011;71249;52.084;5.304;2023-07-20T08:05:23;1.11;;;0.7;;
81815;SDS011;71249;52.084;5.304;2023-07-20T08:08:37;1.11;;;0.4;;
81815;SDS011;71249;52.084;5.304;2023-07-20T08:10:14;2.4;;;0.4;;
81815;SDS011;71249;52.084;5.304;2023-07-20T08:11:50;0.8;;;0.5;;
81815;SDS011;71249;52.084;5.304;2023-07-20T08:13:26;1.9;;;0.5;;
81815;SDS011;71249;52.084;5.304;2023-07-20T08:16:38;1.11;;;0.7;;
81815;SDS011;71249;52.084;5.304;2023-07-20T08:18:14;1.2;;;0.5;;
81815;SDS011;71249;52.084;5.304;2023-07-20T08:19:51;1.5;;;0.5;;
81815;SDS011;71249;52.084;5.304;2023-07-20T08:23:03;1.0;;;0.5;;
81815;SDS011;71249;52.084;5.304;2023-07-20T08:24:39;1.4;;;0.3;;
81815;SDS011;71249;52.084;5.304;2023-07-20T08:26:16;1.3;;;0.6;;
81815;SDS011;71249;52.084;5.304;2023-07-20T08:29:28;1.11;;;0.5;;
81815;SDS011;71249;52.084;5.304;2023-07-20T08:31:05;2.7;;;0.5;;
81815;SDS011;71249;52.084;5.304;2023-07-20T08:32:42;0.7;;;0.4;;
81815;SDS011;71249;52.084;5.304;2023-07-20T08:35:55;0.8;;;0.5;;
81815;SDS011;71249;52.084;5.304;2023-07-20T08:37:31;3.1;;;0.5;;
81815;SDS011;71249;52.084;5.304;2023-07-20T08:39:07;1.5;;;0.6;;
81815;SDS011;71249;52.084;5.304;2023-07-20T08:40:44;1.5;;;0.3;;
81815;SDS011;71249;52.084;5.304;2023-07-20T08:43:59;0.9;;;0.5;;
81815;SDS011;71249;52.084;5.304;2023-07-20T08:47:16;1.9;;;0.5;;
81815;SDS011;71249;52.084;5.304;2023-07-20T08:50:31;1.2;;;0.6;;
81815;SDS011;71249;52.084;5.304;2023-07-20T08:52:08;1.3;;;0.3;;
81815;SDS011;71249;52.084;5.304;2023-07-20T08:53:45;0.5;;;0.3;;
81815;SDS011;71249;52.084;5.304;2023-07-20T08:55:23;3.7;;;0.3;;
81815;SDS011;71249;52.084;5.304;2023-07-20T08:58:39;1.2;;;0.3;;
81815;SDS011;71249;52.084;5.304;2023-07-20T09:00:20;0.3;;;0.3;;
81815;SDS011;71249;52.084;5.304;2023-07-20T09:01:58;1.3;;;0.3;;
81815;SDS011;71249;52.084;5.304;2023-07-20T09:05:11;0.6;;;0.4;;
81815;SDS011;71249;52.084;5.304;2023-07-20T09:06:47;0.6;;;0.3;;
81815;SDS011;71249;52.084;5.304;2023-07-20T09:08:25;1.0;;;0.4;;
81815;SDS011;71249;52.084;5.304;2023-07-20T09:10:01;0.7;;;0.4;;
81815;SDS011;71249;52.084;5.304;2023-07-20T09:13:15;1.2;;;0.4;;
81815;SDS011;71249;52.084;5.304;2023-07-20T09:14:52;0.4;;;0.4;;
81815;SDS011;71249;52.084;5.304;2023-07-20T09:16:28;0.4;;;0.3;;
81815;SDS011;71249;52.084;5.304;2023-07-20T09:19:45;1.3;;;0.3;;
81815;SDS011;71249;52.084;5.304;2023-07-20T09:21:22;0.8;;;0.4;;
81815;SDS011;71249;52.084;5.304;2023-07-20T09:22:58;1.0;;;0.4;;
81815;SDS011;71249;52.084;5.304;2023-07-20T09:24:34;0.4;;;0.3;;
81815;SDS011;71249;52.084;5.304;2023-07-20T09:27:48;1.4;;;0.4;;
81815;SDS011;71249;52.084;5.304;2023-07-20T09:29:26;0.9;;;0.4;;
81815;SDS011;71249;52.084;5.304;2023-07-20T09:31:02;0.6;;;0.4;;
81815;SDS011;71249;52.084;5.304;2023-07-20T09:34:28;2.8;;;0.5;;
81815;SDS011;71249;52.084;5.304;2023-07-20T09:36:05;0.5;;;0.3;;
81815;SDS011;71249;52.084;5.304;2023-07-20T09:37:45;0.6;;;0.3;;
81815;SDS011;71249;52.084;5.304;2023-07-20T09:39:22;0.6;;;0.4;;
81815;SDS011;71249;52.084;5.304;2023-07-20T09:42:35;1.6;;;0.4;;
81815;SDS011;71249;52.084;5.304;2023-07-20T09:44:14;1.3;;;0.3;;
81815;SDS011;71249;52.084;5.304;2023-07-20T09:45:51;0.3;;;0.2;;
81815;SDS011;71249;52.084;5.304;2023-07-20T09:47:35;0.4;;;0.3;;
81815;SDS011;71249;52.084;5.304;2023-07-20T09:50:49;1.4;;;0.4;;
81815;SDS011;71249;52.084;5.304;2023-07-20T09:52:26;0.9;;;0.4;;
81815;SDS011;71249;52.084;5.304;2023-07-20T09:54:03;0.6;;;0.4;;
81815;SDS011;71249;52.084;5.304;2023-07-20T09:57:18;0.6;;;0.3;;
81815;SDS011;71249;52.084;5.304;2023-07-20T09:58:57;0.6;;;0.3;;
81815;SDS011;71249;52.084;5.304;2023-07-20T10:00:34;0.4;;;0.3;;
81815;SDS011;71249;52.084;5.304;2023-07-20T10:02:13;1.4;;;0.4;;
81815;SDS011;71249;52.084;5.304;2023-07-20T10:05:39;1.11;;;0.4;;
81815;SDS011;71249;52.084;5.304;2023-07-20T10:07:19;1.6;;;0.4;;
81815;SDS011;71249;52.084;5.304;2023-07-20T10:09:00;0.6;;;0.3;;
81815;SDS011;71249;52.084;5.304;2023-07-20T10:10:39;0.9;;;0.3;;
81815;SDS011;71249;52.084;5.304;2023-07-20T10:13:58;0.9;;;0.3;;
81815;SDS011;71249;52.084;5.304;2023-07-20T10:15:40;0.5;;;0.3;;
81815;SDS011;71249;52.084;5.304;2023-07-20T10:17:22;0.3;;;0.3;;
81815;SDS011;71249;52.084;5.304;2023-07-20T10:19:03;0.7;;;0.3;;
81815;SDS011;71249;52.084;5.304;2023-07-20T10:22:23;0.8;;;0.4;;
81815;SDS011;71249;52.084;5.304;2023-07-20T10:24:06;0.7;;;0.3;;
81815;SDS011;71249;52.084;5.304;2023-07-20T10:25:44;0.3;;;0.3;;
81815;SDS011;71249;52.084;5.304;2023-07-20T10:27:23;1.8;;;0.4;;
81815;SDS011;71249;52.084;5.304;2023-07-20T10:30:37;0.6;;;0.4;;
81815;SDS011;71249;52.084;5.304;2023-07-20T10:32:14;0.8;;;0.2;;
81815;SDS011;71249;52.084;5.304;2023-07-20T10:33:50;1.9;;;0.3;;
81815;SDS011;71249;52.084;5.304;2023-07-20T10:37:03;0.4;;;0.3;;
81815;SDS011;71249;52.084;5.304;2023-07-20T10:38:40;0.4;;;0.3;;
81815;SDS011;71249;52.084;5.304;2023-07-20T10:40:27;3.0;;;0.5;;
81815;SDS011;71249;52.084;5.304;2023-07-20T10:42:13;3.4;;;0.4;;
81815;SDS011;71249;52.084;5.304;2023-07-20T10:45:32;0.6;;;0.3;;
81815;SDS011;71249;52.084;5.304;2023-07-20T10:47:28;0.7;;;0.6;;
81815;SDS011;71249;52.084;5.304;2023-07-20T10:49:20;0.5;;;0.4;;
81815;SDS011;71249;52.084;5.304;2023-07-20T10:51:12;0.7;;;0.5;;
81815;SDS011;71249;52.084;5.304;2023-07-20T10:53:03;0.4;;;0.3;;
81815;SDS011;71249;52.084;5.304;2023-07-20T10:54:47;1.0;;;0.3;;
81815;SDS011;71249;52.084;5.304;2023-07-20T10:58:06;1.0;;;0.5;;
81815;SDS011;71249;52.084;5.304;2023-07-20T10:59:45;0.6;;;0.4;;
81815;SDS011;71249;52.084;5.304;2023-07-20T11:01:27;2.21;;;0.7;;
81815;SDS011;71249;52.084;5.304;2023-07-20T11:03:04;2.21;;;0.7;;
81815;SDS011;71249;52.084;5.304;2023-07-20T11:06:33;3.0;;;0.4;;
81815;SDS011;71249;52.084;5.304;2023-07-20T11:08:10;0.9;;;0.4;;
81815;SDS011;71249;52.084;5.304;2023-07-20T11:09:47;1.5;;;0.4;;
81815;SDS011;71249;52.084;5.304;2023-07-20T11:11:24;1.0;;;0.4;;
81815;SDS011;71249;52.084;5.304;2023-07-20T11:15:10;0.8;;;0.3;;
81815;SDS011;71249;52.084;5.304;2023-07-20T11:16:47;1.3;;;0.7;;
81815;SDS011;71249;52.084;5.304;2023-07-20T11:18:25;0.4;;;0.3;;
81815;SDS011;71249;52.084;5.304;2023-07-20T11:20:02;1.7;;;0.5;;
81815;SDS011;71249;52.084;5.304;2023-07-20T11:23:19;1.2;;;0.5;;
81815;SDS011;71249;52.084;5.304;2023-07-20T11:24:57;1.3;;;0.5;;
81815;SDS011;71249;52.084;5.304;2023-07-20T11:26:41;0.6;;;0.4;;
81815;SDS011;71249;52.084;5.304;2023-07-20T11:28:19;1.3;;;0.3;;
81815;SDS011;71249;52.084;5.304;2023-07-20T11:31:34;1.6;;;0.5;;
81815;SDS011;71249;52.084;5.304;2023-07-20T11:33:11;0.4;;;0.4;;
81815;SDS011;71249;52.084;5.304;2023-07-20T11:34:47;1.2;;;0.3;;
81815;SDS011;71249;52.084;5.304;2023-07-20T11:37:59;3.1;;;0.8;;
81815;SDS011;71249;52.084;5.304;2023-07-20T11:39:36;1.0;;;0.5;;
81815;SDS011;71249;52.084;5.304;2023-07-20T11:41:12;1.11;;;0.4;;
81815;SDS011;71249;52.084;5.304;2023-07-20T11:44:26;0.6;;;0.4;;
81815;SDS011;71249;52.084;5.304;2023-07-20T11:46:04;1.9;;;0.7;;
81815;SDS011;71249;52.084;5.304;2023-07-20T11:47:41;0.6;;;0.5;;
81815;SDS011;71249;52.084;5.304;2023-07-20T11:50:54;1.7;;;0.4;;
81815;SDS011;71249;52.084;5.304;2023-07-20T11:52:30;2.0;;;0.5;;
81815;SDS011;71249;52.084;5.304;2023-07-20T11:54:07;1.11;;;0.5;;
81815;SDS011;71249;52.084;5.304;2023-07-20T11:55:45;0.7;;;0.5;;
81815;SDS011;71249;52.084;5.304;2023-07-20T11:58:58;1.2;;;0.4;;
81815;SDS011;71249;52.084;5.304;2023-07-20T12:02:14;0.9;;;0.6;;
81815;SDS011;71249;52.084;5.304;2023-07-20T12:05:27;0.8;;;0.6;;
81815;SDS011;71249;52.084;5.304;2023-07-20T12:07:03;0.8;;;0.4;;
81815;SDS011;71249;52.084;5.304;2023-07-20T12:08:39;0.4;;;0.4;;
81815;SDS011;71249;52.084;5.304;2023-07-20T12:11:52;0.8;;;0.5;;
81815;SDS011;71249;52.084;5.304;2023-07-20T12:13:36;1.6;;;0.6;;
81815;SDS011;71249;52.084;5.304;2023-07-20T12:15:14;1.6;;;0.6;;
81815;SDS011;71249;52.084;5.304;2023-07-20T12:16:52;1.7;;;0.4;;
81815;SDS011;71249;52.084;5.304;2023-07-20T12:20:11;1.4;;;0.4;;
81815;SDS011;71249;52.084;5.304;2023-07-20T12:21:48;0.7;;;0.3;;
81815;SDS011;71249;52.084;5.304;2023-07-20T12:23:24;0.8;;;0.4;;
81815;SDS011;71249;52.084;5.304;2023-07-20T12:25:00;1.2;;;0.4;;
81815;SDS011;71249;52.084;5.304;2023-07-20T12:28:14;0.7;;;0.7;;
81815;SDS011;71249;52.084;5.304;2023-07-20T12:29:51;1.4;;;0.5;;
81815;SDS011;71249;52.084;5.304;2023-07-20T12:31:27;0.8;;;0.5;;
81815;SDS011;71249;52.084;5.304;2023-07-20T12:34:41;0.7;;;0.6;;
81815;SDS011;71249;52.084;5.304;2023-07-20T12:36:17;1.11;;;0.4;;
81815;SDS011;71249;52.084;5.304;2023-07-20T12:37:54;1.11;;;0.5;;
81815;SDS011;71249;52.084;5.304;2023-07-20T12:41:06;0.7;;;0.4;;
81815;SDS011;71249;52.084;5.304;2023-07-20T12:42:42;1.3;;;0.6;;
81815;SDS011;71249;52.084;5.304;2023-07-20T12:44:18;0.7;;;0.5;;
81815;SDS011;71249;52.084;5.304;2023-07-20T12:45:55;0.9;;;0.5;;
81815;SDS011;71249;52.084;5.304;2023-07-20T12:49:08;1.5;;;0.6;;
81815;SDS011;71249;52.084;5.304;2023-07-20T12:50:44;1.3;;;0.5;;
81815;SDS011;71249;52.084;5.304;2023-07-20T12:52:20;1.7;;;0.6;;
81815;SDS011;71249;52.084;5.304;2023-07-20T12:55:32;0.7;;;0.5;;
81815;SDS011;71249;52.084;5.304;2023-07-20T12:57:08;1.11;;;0.6;;
81815;SDS011;71249;52.084;5.304;2023-07-20T12:58:44;1.11;;;0.6;;
81815;SDS011;71249;52.084;5.304;2023-07-20T13:01:57;0.8;;;0.6;;
81815;SDS011;71249;52.084;5.304;2023-07-20T13:03:34;1.2;;;0.5;;
81815;SDS011;71249;52.084;5.304;2023-07-20T13:05:10;1.11;;;0.5;;